Time;durP1;ratioP1;P1;durP2;ratioP2;P2;SDS_P1;SDS_P2;PMS_P1;PMS_P2;Temp;Humidity;BMP_temperature;BMP_pressure;BME280_temperature;BME280_humidity;BME280_pressure;Samples;Min_cycle;Max_cycle;Signal;HPM_P1;HPM_P2
2021/09/05 00:00:49;;;;;;;;;;;;;;;14.19;67.06;96619.59;5055619;28;19970;-83
2021/09/05 00:03:15;;;;;;;;;;;;;;;14.17;67.71;96621.69;5055804;28;20337;-83
2021/09/05 00:05:41;;;;;;;;;;;;;;;14.13;67.59;96619.72;5056167;28;19967;-83
2021/09/05 00:08:07;;;;;;;;;;;;;;;14.11;67.47;96611.25;5055828;28;19982;-83
2021/09/05 00:10:32;;;;;;;;;;;;;;;14.10;67.24;96614.94;5055785;28;20065;-83
2021/09/05 00:12:58;;;;;;;;;;;;;;;14.07;67.80;96616.22;5055566;28;20409;-83
2021/09/05 00:15:24;;;;;;;;;;;;;;;14.06;67.90;96611.97;5055394;28;19974;-83
2021/09/05 00:17:50;;;;;;;;;;;;;;;14.02;68.24;96619.53;5055775;28;19982;-83
2021/09/05 00:20:16;;;;;;;;;;;;;;;13.98;68.46;96610.53;5055422;28;20004;-83
2021/09/05 00:22:44;;;;;;;;;;;;;;;13.98;67.86;96607.88;5053120;28;20512;-83
2021/09/05 00:25:10;;;;;;;;;;;;;;;13.97;68.32;96613.38;5055239;28;20447;-83
2021/09/05 00:27:36;;;;;;;;;;;;;;;13.92;68.50;96616.72;5053414;28;20039;-83
2021/09/05 00:30:03;;;;;;;;;;;;;;;13.90;68.23;96616.16;5053711;28;20015;-83
2021/09/05 00:32:28;;;;;;;;;;;;;;;13.88;68.60;96609.50;5055125;28;20001;-83
2021/09/05 00:34:54;;;;;;;;;;;;;;;13.86;68.87;96612.41;5055573;28;19966;-83
2021/09/05 00:37:20;;;;;;;;;;;;;;;13.84;68.76;96611.81;5055133;28;20041;-83
2021/09/05 00:39:46;;;;;;;;;;;;;;;13.81;68.88;96613.06;5055053;28;20022;-83
2021/09/05 00:42:20;;;;;;;;;;;;;;;13.79;68.96;96615.13;5054995;28;19992;-83
2021/09/05 00:44:46;;;;;;;;;;;;;;;13.75;69.25;96607.94;5055440;28;19979;-83
2021/09/05 00:47:11;;;;;;;;;;;;;;;13.74;69.36;96617.69;5055024;28;20024;-83
2021/09/05 00:49:37;;;;;;;;;;;;;;;13.71;68.74;96607.63;5054397;28;20072;-83
2021/09/05 00:52:03;;;;;;;;;;;;;;;13.70;69.06;96611.28;5055152;28;20006;-83
2021/09/05 00:54:29;;;;;;;;;;;;;;;13.68;69.47;96610.72;5054689;28;19985;-83
2021/09/05 00:56:55;;;;;;;;;;;;;;;13.67;69.34;96614.41;5054747;28;19985;-83
2021/09/05 00:59:22;;;;;;;;;;;;;;;13.68;69.54;96615.19;5054445;28;20439;-83
2021/09/05 01:01:48;;;;;;;;;;;;;;;13.67;69.73;96616.22;5055302;28;19987;-83
2021/09/05 01:04:14;;;;;;;;;;;;;;;13.65;69.91;96618.28;5054399;28;20432;-83
2021/09/05 01:06:40;;;;;;;;;;;;;;;13.62;69.53;96618.75;5054477;28;20060;-83
2021/09/05 01:09:10;;;;;;;;;;;;;;;13.60;69.36;96609.22;5054042;28;20408;-83
2021/09/05 01:11:36;;;;;;;;;;;;;;;13.59;69.77;96620.81;5054188;28;19999;-83
2021/09/05 01:14:03;;;;;;;;;;;;;;;13.57;70.11;96612.34;5054652;28;19992;-83
2021/09/05 01:16:33;;;;;;;;;;;;;;;13.56;70.46;96612.56;5054522;28;20006;-83
2021/09/05 01:19:09;;;;;;;;;;;;;;;13.54;70.46;96609.38;5054649;28;19976;-83
2021/09/05 01:21:35;;;;;;;;;;;;;;;13.52;69.77;96617.53;5039772;28;19979;-83
2021/09/05 01:24:02;;;;;;;;;;;;;;;13.51;69.96;96618.53;5054126;28;20436;-83
2021/09/05 01:26:29;;;;;;;;;;;;;;;13.49;70.22;96628.50;5054358;28;19982;-83
2021/09/05 01:28:56;;;;;;;;;;;;;;;13.47;70.06;96630.56;5054714;28;19996;-83
2021/09/05 01:31:23;;;;;;;;;;;;;;;13.46;69.60;96628.16;5052855;28;20087;-83
2021/09/05 01:33:49;;;;;;;;;;;;;;;13.45;69.93;96639.75;5054309;28;19966;-83
2021/09/05 01:36:18;;;;;;;;;;;;;;;13.42;70.13;96635.75;5054136;28;19982;-83
2021/09/05 01:38:44;;;;;;;;;;;;;;;13.41;70.05;96642.03;5053990;28;19969;-83
2021/09/05 01:41:10;;;;;;;;;;;;;;;13.39;69.47;96644.09;5054082;28;19989;-83
2021/09/05 01:43:37;;;;;;;;;;;;;;;13.38;70.14;96645.94;5054128;28;20016;-83
2021/09/05 01:46:03;;;;;;;;;;;;;;;13.37;70.36;96651.44;5054106;28;19982;-83
2021/09/05 01:48:29;;;;;;;;;;;;;;;13.34;70.96;96651.91;5053895;28;20459;-83
2021/09/05 01:50:55;;;;;;;;;;;;;;;13.31;70.59;96647.06;5053610;28;20024;-83
2021/09/05 01:53:20;;;;;;;;;;;;;;;13.27;70.46;96661.72;5053577;28;19993;-83
2021/09/05 01:55:46;;;;;;;;;;;;;;;13.24;70.58;96649.81;5054330;28;20038;-83
2021/09/05 01:58:12;;;;;;;;;;;;;;;13.22;70.52;96658.97;5054060;28;19994;-83
2021/09/05 02:00:38;;;;;;;;;;;;;;;13.19;70.54;96652.34;5051830;28;20034;-83
2021/09/05 02:03:04;;;;;;;;;;;;;;;13.17;70.40;96655.19;5053327;28;20031;-83
2021/09/05 02:05:43;;;;;;;;;;;;;;;13.15;70.98;96659.88;5053572;28;19986;-83
2021/09/05 02:08:09;;;;;;;;;;;;;;;13.14;70.99;96662.75;5051700;28;19984;-83
2021/09/05 02:10:35;;;;;;;;;;;;;;;13.12;71.06;96664.78;5053681;28;20355;-83
2021/09/05 02:13:01;;;;;;;;;;;;;;;13.10;71.34;96662.41;5053355;28;20041;-83
2021/09/05 02:15:26;;;;;;;;;;;;;;;13.08;70.77;96651.31;5053593;28;19975;-83
2021/09/05 02:17:52;;;;;;;;;;;;;;;13.06;71.77;96661.25;5053570;28;20482;-83
2021/09/05 02:20:18;;;;;;;;;;;;;;;13.04;70.96;96665.13;5057630;28;20031;-83
2021/09/05 02:22:44;;;;;;;;;;;;;;;12.99;71.01;96661.34;5060000;28;19995;-83
2021/09/05 02:25:10;;;;;;;;;;;;;;;12.97;70.80;96659.97;5059129;28;19979;-83
2021/09/05 02:27:36;;;;;;;;;;;;;;;12.94;70.89;96657.81;5060051;28;19999;-83
2021/09/05 02:30:02;;;;;;;;;;;;;;;12.89;71.77;96661.13;5060141;28;19977;-83
2021/09/05 02:32:28;;;;;;;;;;;;;;;12.87;71.24;96665.00;5060025;28;20451;-83
2021/09/05 02:34:54;;;;;;;;;;;;;;;12.84;71.96;96670.72;5059732;28;19978;-83
2021/09/05 02:37:20;;;;;;;;;;;;;;;12.82;72.13;96672.78;5060530;28;20023;-83
2021/09/05 02:39:46;;;;;;;;;;;;;;;12.80;71.87;96668.53;5060147;28;19977;-83
2021/09/05 02:42:12;;;;;;;;;;;;;;;12.79;71.86;96674.03;5059859;28;20365;-83
2021/09/05 02:44:38;;;;;;;;;;;;;;;12.77;71.59;96674.25;5060300;28;19974;-83
2021/09/05 02:47:04;;;;;;;;;;;;;;;12.76;71.90;96675.28;5059630;28;20036;-83
2021/09/05 02:49:29;;;;;;;;;;;;;;;12.73;72.30;96670.47;5059893;28;20141;-83
2021/09/05 02:51:55;;;;;;;;;;;;;;;12.71;72.26;96671.75;5059844;28;20000;-84
2021/09/05 02:54:21;;;;;;;;;;;;;;;12.68;72.78;96665.09;5059836;28;20000;-84
2021/09/05 02:56:47;;;;;;;;;;;;;;;12.67;72.36;96665.31;5059920;28;19976;-84
2021/09/05 02:59:13;;;;;;;;;;;;;;;12.64;72.92;96658.69;5060129;28;20045;-84
2021/09/05 03:01:39;;;;;;;;;;;;;;;12.61;73.35;96659.13;5059741;28;20031;-84
2021/09/05 03:04:05;;;;;;;;;;;;;;;12.59;73.54;96659.34;5059660;28;20085;-84
2021/09/05 03:06:31;;;;;;;;;;;;;;;12.58;73.06;96662.22;5059958;28;20011;-84
2021/09/05 03:08:56;;;;;;;;;;;;;;;12.56;73.05;96667.69;5059882;28;20072;-84
2021/09/05 03:11:22;;;;;;;;;;;;;;;12.55;72.92;96665.28;5059703;28;20030;-84
2021/09/05 03:13:48;;;;;;;;;;;;;;;12.54;72.73;96661.84;5060069;28;20444;-84
2021/09/05 03:16:14;;;;;;;;;;;;;;;12.54;72.48;96661.84;5059583;28;20074;-84
2021/09/05 03:18:40;;;;;;;;;;;;;;;12.54;72.28;96651.31;5059424;28;19970;-84
2021/09/05 03:21:06;;;;;;;;;;;;;;;12.54;72.79;96655.78;5059088;28;19975;-84
2021/09/05 03:23:32;;;;;;;;;;;;;;;12.51;72.84;96653.59;5059819;28;20485;-84
2021/09/05 03:25:58;;;;;;;;;;;;;;;12.49;72.46;96663.53;5059828;28;19989;-84
2021/09/05 03:28:24;;;;;;;;;;;;;;;12.47;72.78;96665.59;5059517;28;20028;-84
2021/09/05 03:30:49;;;;;;;;;;;;;;;12.44;72.76;96664.22;5057075;28;19975;-84
2021/09/05 03:33:15;;;;;;;;;;;;;;;12.43;72.85;96661.81;5056257;28;20032;-84
2021/09/05 03:35:41;;;;;;;;;;;;;;;12.41;72.90;96664.69;5056355;28;20431;-84
2021/09/05 03:38:07;;;;;;;;;;;;;;;12.41;72.52;96666.50;5056266;28;20006;-84
2021/09/05 03:40:33;;;;;;;;;;;;;;;12.40;72.27;96665.69;5056700;28;19973;-84
2021/09/05 03:42:59;;;;;;;;;;;;;;;12.40;72.77;96668.31;5056212;28;19970;-84
2021/09/05 03:45:25;;;;;;;;;;;;;;;12.38;73.47;96671.16;5055002;28;19970;-84
2021/09/05 03:47:51;;;;;;;;;;;;;;;12.35;73.56;96666.38;5056113;28;19972;-84
2021/09/05 03:50:17;;;;;;;;;;;;;;;12.33;72.91;96657.09;5056528;28;20495;-84
2021/09/05 03:52:44;;;;;;;;;;;;;;;12.30;73.25;96658.31;5055967;28;19982;-84
2021/09/05 03:55:11;;;;;;;;;;;;;;;12.29;73.27;96667.25;5054398;28;19987;-84
2021/09/05 03:57:37;;;;;;;;;;;;;;;12.29;72.77;96658.56;5055977;28;20416;-84
2021/09/05 04:00:03;;;;;;;;;;;;;;;12.27;73.61;96666.69;5055995;28;19985;-84
2021/09/05 04:02:29;;;;;;;;;;;;;;;12.26;73.92;96672.94;5054402;28;20366;-84
2021/09/05 04:04:55;;;;;;;;;;;;;;;12.23;74.01;96667.34;5055731;28;19988;-84
2021/09/05 04:07:21;;;;;;;;;;;;;;;12.21;73.90;96666.78;5055382;28;20439;-84
2021/09/05 04:12:31;;;;;;;;;;;;;;;12.18;73.79;96676.72;5054206;28;19999;-84
2021/09/05 04:14:57;;;;;;;;;;;;;;;12.17;73.84;96676.91;5055486;28;20436;-84
2021/09/05 04:17:23;;;;;;;;;;;;;;;12.15;74.29;96678.97;5055636;28;19979;-84
2021/09/05 04:19:49;;;;;;;;;;;;;;;12.14;73.74;96675.53;5055573;28;19985;-84
2021/09/05 04:22:25;;;;;;;;;;;;;;;12.13;73.54;96684.44;5054680;28;20013;-84
2021/09/05 04:24:51;;;;;;;;;;;;;;;12.11;73.90;96681.22;5055523;28;19963;-84
2021/09/05 04:27:17;;;;;;;;;;;;;;;12.09;73.80;96671.97;5055402;28;19986;-84
2021/09/05 04:29:43;;;;;;;;;;;;;;;12.09;73.91;96677.22;5055092;28;20392;-84
2021/09/05 04:32:09;;;;;;;;;;;;;;;12.08;74.23;96678.25;5055298;28;19985;-84
2021/09/05 04:34:35;;;;;;;;;;;;;;;12.05;74.33;96683.94;5055248;28;19977;-84
2021/09/05 04:37:01;;;;;;;;;;;;;;;12.04;74.63;96683.16;5055096;28;19969;-84
2021/09/05 04:39:27;;;;;;;;;;;;;;;12.03;74.76;96680.72;5055225;28;20385;-84
2021/09/05 04:41:53;;;;;;;;;;;;;;;12.03;74.23;96678.09;5054936;28;20357;-84
2021/09/05 04:44:19;;;;;;;;;;;;;;;12.02;73.78;96690.44;5053121;28;19974;-84
2021/09/05 04:46:45;;;;;;;;;;;;;;;12.01;74.88;96694.13;5055022;28;20005;-84
2021/09/05 04:49:11;;;;;;;;;;;;;;;12.01;74.73;96693.28;5055139;28;19972;-84
2021/09/05 04:51:37;;;;;;;;;;;;;;;11.99;74.55;96690.91;5054925;28;19980;-84
2021/09/05 04:54:03;;;;;;;;;;;;;;;11.98;74.70;96700.59;5055022;28;19967;-84
2021/09/05 04:56:29;;;;;;;;;;;;;;;11.98;74.50;96702.44;5054786;28;19979;-84
2021/09/05 04:58:55;;;;;;;;;;;;;;;11.99;74.07;96704.06;5054774;28;20028;-84
2021/09/05 05:01:21;;;;;;;;;;;;;;;12.01;73.72;96719.56;5054846;28;19980;-84
2021/09/05 05:03:47;;;;;;;;;;;;;;;12.02;74.03;96718.56;5054685;28;20465;-84
2021/09/05 05:06:12;;;;;;;;;;;;;;;12.03;74.71;96722.78;5054663;28;19979;-84
2021/09/05 05:08:38;;;;;;;;;;;;;;;12.02;74.50;96722.00;5054711;28;19975;-84
2021/09/05 05:11:04;;;;;;;;;;;;;;;12.03;74.38;96725.41;5054291;28;20043;-84
2021/09/05 05:13:30;;;;;;;;;;;;;;;12.03;74.28;96723.59;5054254;28;19975;-84
2021/09/05 05:15:56;;;;;;;;;;;;;;;12.06;74.46;96719.75;5054885;28;20347;-84
2021/09/05 05:18:22;;;;;;;;;;;;;;;12.08;74.64;96725.56;5054547;28;20011;-84
2021/09/05 05:20:48;;;;;;;;;;;;;;;12.11;74.68;96722.50;5054251;28;19987;-84
2021/09/05 05:23:14;;;;;;;;;;;;;;;12.27;74.36;96732.41;5054216;28;20080;-84
2021/09/05 05:25:40;;;;;;;;;;;;;;;12.69;74.02;96729.06;5054246;28;19974;-84
2021/09/05 05:28:06;;;;;;;;;;;;;;;13.17;72.89;96730.75;5054148;28;20986;-84
2021/09/05 05:30:32;;;;;;;;;;;;;;;13.65;72.08;96731.59;5036205;28;20354;-84
2021/09/05 05:32:58;;;;;;;;;;;;;;;14.07;71.07;96734.06;5054470;28;19985;-84
2021/09/05 05:35:24;;;;;;;;;;;;;;;14.44;70.00;96736.38;5053999;28;20000;-84
2021/09/05 05:37:51;;;;;;;;;;;;;;;14.80;69.06;96737.84;5054142;28;19970;-84
2021/09/05 05:40:22;;;;;;;;;;;;;;;15.17;68.09;96735.59;5053648;28;19965;-84
2021/09/05 05:42:48;;;;;;;;;;;;;;;15.52;67.37;96731.91;5053251;28;20336;-84
2021/09/05 05:45:17;;;;;;;;;;;;;;;15.78;66.51;96734.94;5053859;28;19973;-84
2021/09/05 05:47:43;;;;;;;;;;;;;;;15.76;66.14;96727.22;5054126;28;19973;-84
2021/09/05 05:50:09;;;;;;;;;;;;;;;15.92;66.12;96738.03;5053836;28;19978;-84
2021/09/05 05:52:35;;;;;;;;;;;;;;;16.23;65.43;96736.53;5053093;28;19981;-84
2021/09/05 05:55:01;;;;;;;;;;;;;;;16.58;64.80;96732.72;5053534;28;20347;-83
2021/09/05 05:57:28;;;;;;;;;;;;;;;16.93;64.15;96736.81;5052900;28;19973;-83
2021/09/05 05:59:54;;;;;;;;;;;;;;;17.28;63.36;96730.19;5053939;28;20439;-84
2021/09/05 06:02:20;;;;;;;;;;;;;;;17.59;62.75;96721.38;5053633;28;19995;-83
2021/09/05 06:04:46;;;;;;;;;;;;;;;17.87;62.11;96718.66;5051817;28;19979;-84
2021/09/05 06:07:12;;;;;;;;;;;;;;;18.04;61.37;96714.78;5053729;28;19973;-83
2021/09/05 06:09:38;;;;;;;;;;;;;;;18.13;59.80;96701.81;5053370;28;19971;-83
2021/09/05 06:12:05;;;;;;;;;;;;;;;18.24;59.67;96706.09;5053650;28;19984;-83
2021/09/05 06:14:31;;;;;;;;;;;;;;;18.40;59.69;96704.28;5053437;28;19975;-83
2021/09/05 06:16:57;;;;;;;;;;;;;;;18.17;59.43;96704.75;5053544;28;19976;-83
2021/09/05 06:19:23;;;;;;;;;;;;;;;17.91;59.97;96706.47;5053586;28;19974;-83
2021/09/05 06:21:49;;;;;;;;;;;;;;;17.82;60.77;96722.88;5053277;28;20442;-83
2021/09/05 06:24:15;;;;;;;;;;;;;;;17.98;60.09;96707.84;5053189;28;19980;-83
2021/09/05 06:26:41;;;;;;;;;;;;;;;18.15;59.90;96712.16;5053591;28;20322;-83
2021/09/05 06:29:07;;;;;;;;;;;;;;;18.25;59.62;96710.34;5053493;28;19965;-83
2021/09/05 06:31:32;;;;;;;;;;;;;;;18.41;59.20;96707.72;5053985;28;20022;-83
2021/09/05 06:33:58;;;;;;;;;;;;;;;18.55;59.02;96716.81;5053309;28;20076;-83
2021/09/05 06:36:24;;;;;;;;;;;;;;;18.72;59.74;96729.06;5053242;28;20009;-83
2021/09/05 06:38:50;;;;;;;;;;;;;;;18.66;58.35;96720.28;5053380;28;20064;-83
2021/09/05 06:41:16;;;;;;;;;;;;;;;18.66;58.83;96725.59;5053297;28;20495;-83
2021/09/05 06:43:42;;;;;;;;;;;;;;;18.76;59.07;96730.13;5053721;28;20035;-82
2021/09/05 06:46:08;;;;;;;;;;;;;;;18.74;58.35;96727.72;5053499;28;20023;-82
2021/09/05 06:48:34;;;;;;;;;;;;;;;18.80;59.04;96736.56;5052529;28;19977;-82
2021/09/05 06:50:59;;;;;;;;;;;;;;;18.70;58.95;96731.19;5053004;28;20001;-82
2021/09/05 06:53:25;;;;;;;;;;;;;;;18.39;59.71;96750.47;5053044;28;20050;-82
2021/09/05 06:55:51;;;;;;;;;;;;;;;18.41;59.92;96742.25;5052100;28;19973;-82
2021/09/05 06:58:17;;;;;;;;;;;;;;;18.55;60.00;96739.91;5053281;28;20415;-83
2021/09/05 07:00:43;;;;;;;;;;;;;;;18.58;58.92;96739.38;5053557;28;20008;-82
2021/09/05 07:03:09;;;;;;;;;;;;;;;18.65;59.25;96740.75;5052930;28;19973;-82
2021/09/05 07:05:35;;;;;;;;;;;;;;;18.71;59.74;96752.19;5053000;28;19973;-82
2021/09/05 07:08:01;;;;;;;;;;;;;;;18.68;58.64;96739.41;5056218;28;19970;-82
2021/09/05 07:10:27;;;;;;;;;;;;;;;18.67;59.84;96751.91;5055321;28;20320;-82
2021/09/05 07:12:52;;;;;;;;;;;;;;;18.81;59.79;96748.75;5056620;28;20004;-82
2021/09/05 07:15:18;;;;;;;;;;;;;;;19.03;59.43;96745.88;5056621;28;19988;-82
2021/09/05 07:17:44;;;;;;;;;;;;;;;19.21;58.48;96733.91;5056643;28;20018;-82
2021/09/05 07:20:10;;;;;;;;;;;;;;;19.33;58.44;96736.31;5056725;28;19998;-82
2021/09/05 07:22:36;;;;;;;;;;;;;;;19.38;57.99;96737.13;5044301;28;20335;-81
2021/09/05 07:25:02;;;;;;;;;;;;;;;19.44;58.52;96736.06;5056737;28;20346;-81
2021/09/05 07:27:29;;;;;;;;;;;;;;;19.34;58.34;96736.06;5056561;28;19973;-82
2021/09/05 07:29:55;;;;;;;;;;;;;;;19.17;58.29;96743.47;5054709;28;19984;-82
2021/09/05 07:32:21;;;;;;;;;;;;;;;19.17;58.95;96748.81;5056236;28;19966;-81
2021/09/05 07:34:47;;;;;;;;;;;;;;;19.27;59.46;96762.09;5056085;28;19984;-81
2021/09/05 07:37:14;;;;;;;;;;;;;;;19.41;58.71;96757.06;5056342;28;19991;-81
2021/09/05 07:39:40;;;;;;;;;;;;;;;19.37;58.58;96758.66;5056544;28;19969;-81
2021/09/05 07:42:06;;;;;;;;;;;;;;;19.49;58.68;96764.50;5056612;28;20044;-81
2021/09/05 07:44:32;;;;;;;;;;;;;;;19.53;58.57;96762.09;5056306;28;19966;-81
2021/09/05 07:46:59;;;;;;;;;;;;;;;19.68;59.20;96776.19;5056117;28;19996;-81
2021/09/05 07:49:26;;;;;;;;;;;;;;;19.82;57.45;96751.72;5055820;28;20370;-81
2021/09/05 07:51:51;;;;;;;;;;;;;;;19.92;57.58;96758.88;5056483;28;19973;-81
2021/09/05 07:54:17;;;;;;;;;;;;;;;19.86;56.52;96753.59;5055679;28;19993;-81
2021/09/05 07:56:43;;;;;;;;;;;;;;;19.80;56.98;96753.84;5055963;28;19974;-81
2021/09/05 07:59:09;;;;;;;;;;;;;;;19.94;58.14;96770.84;5056027;28;20068;-81
2021/09/05 08:01:35;;;;;;;;;;;;;;;20.07;57.26;96761.50;5055840;28;19974;-81
2021/09/05 08:04:01;;;;;;;;;;;;;;;20.05;56.29;96756.47;5055611;28;19973;-81
2021/09/05 08:06:27;;;;;;;;;;;;;;;19.87;56.91;96754.38;5055937;28;20017;-81
2021/09/05 08:08:57;;;;;;;;;;;;;;;19.71;57.64;96779.41;5056076;28;19969;-81
2021/09/05 08:11:24;;;;;;;;;;;;;;;19.50;58.23;96770.63;5055711;28;19969;-81
2021/09/05 08:13:49;;;;;;;;;;;;;;;19.58;59.32;96780.72;5055532;28;19992;-82
2021/09/05 08:16:15;;;;;;;;;;;;;;;19.78;59.19;96775.41;5055490;28;20055;-81
2021/09/05 08:18:42;;;;;;;;;;;;;;;20.01;58.83;96768.72;5055057;28;20023;-81
2021/09/05 08:21:08;;;;;;;;;;;;;;;20.25;57.36;96760.91;5055567;28;20365;-81
2021/09/05 08:23:35;;;;;;;;;;;;;;;20.54;57.45;96770.13;5056254;28;20007;-82
2021/09/05 08:26:01;;;;;;;;;;;;;;;20.53;56.33;96755.19;5055535;28;19973;-81
2021/09/05 08:28:27;;;;;;;;;;;;;;;20.37;56.93;96757.94;5054425;28;19969;-81
2021/09/05 08:30:53;;;;;;;;;;;;;;;20.23;56.99;96768.38;5055356;28;20447;-81
2021/09/05 08:33:19;;;;;;;;;;;;;;;20.34;56.70;96758.47;5054993;28;20036;-81
2021/09/05 08:35:45;;;;;;;;;;;;;;;20.64;56.34;96760.25;5055158;28;20059;-81
2021/09/05 08:38:12;;;;;;;;;;;;;;;20.80;54.69;96742.28;5055391;28;20357;-81
2021/09/05 08:40:42;;;;;;;;;;;;;;;20.95;54.66;96744.06;5054962;28;19974;-81
2021/09/05 08:43:09;;;;;;;;;;;;;;;20.92;55.26;96757.16;5053871;28;19969;-81
2021/09/05 08:45:35;;;;;;;;;;;;;;;20.93;54.44;96750.75;5054968;28;19976;-81
2021/09/05 08:48:01;;;;;;;;;;;;;;;20.93;55.21;96764.88;5054762;28;19976;-81
2021/09/05 08:50:27;;;;;;;;;;;;;;;20.75;55.57;96776.97;5055242;28;19977;-82
2021/09/05 08:52:53;;;;;;;;;;;;;;;20.65;55.89;96769.81;5055118;28;19988;-81
2021/09/05 08:55:19;;;;;;;;;;;;;;;20.59;56.17;96773.56;5054709;28;19973;-81
2021/09/05 08:57:45;;;;;;;;;;;;;;;20.56;56.45;96781.31;5054773;28;19974;-81
2021/09/05 09:00:12;;;;;;;;;;;;;;;20.64;56.39;96780.75;5054752;28;19969;-81
2021/09/05 09:02:45;;;;;;;;;;;;;;;20.66;55.55;96767.94;5054719;28;19969;-81
2021/09/05 09:05:12;;;;;;;;;;;;;;;20.73;56.66;96783.66;5054721;28;19969;-81
2021/09/05 09:07:48;;;;;;;;;;;;;;;20.78;57.18;96794.28;5054903;28;20346;-81
2021/09/05 09:10:15;;;;;;;;;;;;;;;20.81;57.11;96788.38;5054425;28;19965;-81
2021/09/05 09:12:42;;;;;;;;;;;;;;;20.78;57.02;96792.41;5054402;28;20419;-81
2021/09/05 09:15:21;;;;;;;;;;;;;;;20.81;57.15;96791.06;5054400;28;20440;-81
2021/09/05 09:17:51;;;;;;;;;;;;;;;20.85;56.86;96790.25;5054439;28;19965;-81
2021/09/05 09:20:31;;;;;;;;;;;;;;;20.96;57.81;96798.97;5054398;28;19980;-81
2021/09/05 09:23:23;;;;;;;;;;;;;;;21.11;56.98;96792.75;5052478;28;19997;-81
2021/09/05 09:26:12;;;;;;;;;;;;;;;21.24;54.63;96767.31;5044387;28;19974;-81
2021/09/05 09:28:45;;;;;;;;;;;;;;;21.33;54.82;96767.53;5045983;28;19973;-81
2021/09/05 09:31:11;;;;;;;;;;;;;;;21.34;52.64;96751.25;5054357;28;19976;-81
2021/09/05 09:33:37;;;;;;;;;;;;;;;21.38;54.58;96770.16;5053911;28;19985;-81
2021/09/05 09:36:04;;;;;;;;;;;;;;;21.45;53.55;96768.78;5053803;28;20017;-81
2021/09/05 09:38:31;;;;;;;;;;;;;;;21.52;55.26;96781.78;5052560;28;19973;-81
2021/09/05 09:41:08;;;;;;;;;;;;;;;21.53;54.96;96783.41;5052752;28;20028;-81
2021/09/05 09:43:34;;;;;;;;;;;;;;;21.57;55.04;96781.78;5053930;28;19968;-81
2021/09/05 09:46:13;;;;;;;;;;;;;;;21.77;54.92;96777.31;5054074;28;19969;-81
2021/09/05 09:48:43;;;;;;;;;;;;;;;21.90;52.96;96747.28;5053989;28;19960;-81
2021/09/05 09:51:10;;;;;;;;;;;;;;;21.92;52.87;96752.34;5053869;28;19996;-81
2021/09/05 09:53:38;;;;;;;;;;;;;;;21.95;53.58;96755.25;5054078;28;20000;-81
2021/09/05 09:56:05;;;;;;;;;;;;;;;22.00;54.96;96768.53;5053762;28;19966;-81
2021/09/05 09:58:31;;;;;;;;;;;;;;;22.01;55.03;96764.78;5053624;28;19969;-81
2021/09/05 10:00:58;;;;;;;;;;;;;;;21.99;54.19;96753.59;5053643;28;19980;-81
2021/09/05 10:03:25;;;;;;;;;;;;;;;21.98;53.76;96751.19;5053713;28;20407;-81
2021/09/05 10:05:52;;;;;;;;;;;;;;;21.98;49.91;96709.25;5053741;28;20036;-81
2021/09/05 10:08:19;;;;;;;;;;;;;;;22.03;50.96;96716.44;5053458;28;19977;-81
2021/09/05 10:10:48;;;;;;;;;;;;;;;22.06;52.42;96727.34;5053589;28;19969;-81
2021/09/05 10:13:14;;;;;;;;;;;;;;;22.09;50.25;96718.78;5053182;28;20339;-81
2021/09/05 10:15:40;;;;;;;;;;;;;;;22.18;52.66;96731.50;5052507;28;19981;-81
2021/09/05 10:18:07;;;;;;;;;;;;;;;22.25;51.30;96726.63;5053464;28;20434;-81
2021/09/05 10:20:33;;;;;;;;;;;;;;;22.32;50.90;96719.03;5053479;28;19980;-80
2021/09/05 10:23:02;;;;;;;;;;;;;;;22.43;52.12;96731.22;5052131;28;20430;-81
2021/09/05 10:25:28;;;;;;;;;;;;;;;22.60;50.46;96708.53;5053463;28;19974;-81
2021/09/05 10:27:54;;;;;;;;;;;;;;;22.75;49.11;96696.84;5052695;28;19981;-81
2021/09/05 10:30:23;;;;;;;;;;;;;;;22.90;50.68;96718.00;5053926;28;20027;-80
2021/09/05 10:32:49;;;;;;;;;;;;;;;23.05;50.17;96712.44;5052024;28;19973;-80
2021/09/05 10:35:34;;;;;;;;;;;;;;;23.21;50.18;96714.88;5053578;28;19973;-80
2021/09/05 10:38:09;;;;;;;;;;;;;;;23.32;46.03;96694.88;5039272;28;20348;-81
2021/09/05 10:40:42;;;;;;;;;;;;;;;23.38;47.38;96711.66;5054392;28;19973;-81
2021/09/05 10:43:09;;;;;;;;;;;;;;;23.46;46.25;96714.44;5057249;28;19970;-81
2021/09/05 10:45:35;;;;;;;;;;;;;;;23.57;44.54;96708.91;5055472;28;19970;-81
2021/09/05 10:48:01;;;;;;;;;;;;;;;23.62;44.00;96743.63;5057163;28;19987;-81
2021/09/05 10:50:35;;;;;;;;;;;;;;;23.65;43.34;96751.06;5057259;28;20423;-81
2021/09/05 10:53:16;;;;;;;;;;;;;;;23.79;45.10;96765.31;5057218;28;19976;-80
2021/09/05 10:56:01;;;;;;;;;;;;;;;23.98;44.46;96764.44;5056366;28;19976;-81
2021/09/05 10:58:46;;;;;;;;;;;;;;;24.11;42.18;96767.13;5057181;28;19969;-80
2021/09/05 11:01:15;;;;;;;;;;;;;;;24.25;42.15;96758.28;5048472;28;19976;-80
2021/09/05 11:04:00;;;;;;;;;;;;;;;24.34;43.43;96787.88;5056945;28;19976;-81
2021/09/05 11:06:35;;;;;;;;;;;;;;;24.43;42.51;96781.50;5057111;28;19973;-81
2021/09/05 11:09:20;;;;;;;;;;;;;;;24.53;43.56;96777.88;5056849;28;19973;-80
2021/09/05 11:11:59;;;;;;;;;;;;;;;24.68;42.47;96771.41;5056541;28;19973;-80
2021/09/05 11:14:34;;;;;;;;;;;;;;;24.73;41.05;96781.22;5057118;28;19985;-81
2021/09/05 11:17:17;;;;;;;;;;;;;;;24.77;39.99;96772.25;5047224;28;19976;-81
2021/09/05 11:19:47;;;;;;;;;;;;;;;24.95;43.07;96786.63;5056649;28;19969;-80
2021/09/05 11:22:18;;;;;;;;;;;;;;;25.03;39.76;96752.91;5056464;28;20485;-80
2021/09/05 11:24:44;;;;;;;;;;;;;;;25.15;42.31;96773.84;5056966;28;19973;-80
2021/09/05 11:27:11;;;;;;;;;;;;;;;25.28;43.72;96781.06;5054932;28;19977;-80
2021/09/05 11:29:37;;;;;;;;;;;;;;;25.27;41.18;96769.53;5056663;28;19974;-80
2021/09/05 11:32:05;;;;;;;;;;;;;;;25.27;41.17;96771.44;5055715;28;19981;-80
2021/09/05 11:34:32;;;;;;;;;;;;;;;25.31;40.38;96775.09;5055832;28;19992;-80
2021/09/05 11:36:58;;;;;;;;;;;;;;;25.40;39.95;96775.94;5055608;28;19965;-80
2021/09/05 11:39:23;;;;;;;;;;;;;;;25.46;41.67;96782.78;5055024;28;20056;-80
2021/09/05 11:41:53;;;;;;;;;;;;;;;25.48;41.30;96779.81;5056053;28;19970;-80
2021/09/05 11:44:36;;;;;;;;;;;;;;;25.50;42.84;96793.72;5056251;28;19973;-80
2021/09/05 11:47:09;;;;;;;;;;;;;;;25.54;40.39;96773.22;5053994;28;19961;-80
2021/09/05 11:49:36;;;;;;;;;;;;;;;25.55;40.33;96777.47;5056238;28;19970;-80
2021/09/05 11:52:02;;;;;;;;;;;;;;;25.42;40.41;96775.66;5055293;28;19970;-80
2021/09/05 11:54:28;;;;;;;;;;;;;;;25.33;42.01;96799.75;5055866;28;19989;-80
2021/09/05 11:56:54;;;;;;;;;;;;;;;25.46;42.18;96801.59;5056119;28;20417;-80
2021/09/05 11:59:20;;;;;;;;;;;;;;;25.62;40.11;96777.84;5055988;28;19974;-80
2021/09/05 12:01:48;;;;;;;;;;;;;;;25.68;39.84;96771.25;5055546;28;19970;-80
2021/09/05 12:04:17;;;;;;;;;;;;;;;25.91;40.90;96790.84;5055274;28;19972;-80
2021/09/05 12:06:43;;;;;;;;;;;;;;;26.21;40.17;96783.06;5055737;28;19965;-80
2021/09/05 12:09:10;;;;;;;;;;;;;;;26.08;39.64;96784.75;5054182;28;19989;-80
2021/09/05 12:11:54;;;;;;;;;;;;;;;26.00;39.50;96773.97;5054847;28;19969;-80
2021/09/05 12:14:36;;;;;;;;;;;;;;;26.15;39.34;96789.66;5055363;28;19981;-80
2021/09/05 12:17:19;;;;;;;;;;;;;;;26.20;40.73;96797.59;5055772;28;19969;-80
2021/09/05 12:20:02;;;;;;;;;;;;;;;26.26;39.02;96769.47;5055699;28;19969;-81
2021/09/05 12:22:42;;;;;;;;;;;;;;;26.37;41.88;96801.44;5038211;28;20000;-81
2021/09/05 12:25:12;;;;;;;;;;;;;;;26.60;40.49;96792.19;5054328;28;19976;-81
2021/09/05 12:27:38;;;;;;;;;;;;;;;26.63;38.05;96770.06;5055685;28;19977;-80
2021/09/05 12:30:20;;;;;;;;;;;;;;;26.68;38.67;96774.50;5055330;28;19977;-80
2021/09/05 12:33:21;;;;;;;;;;;;;;;26.88;39.55;96781.97;5053869;28;19977;-80
2021/09/05 12:35:48;;;;;;;;;;;;;;;27.11;39.71;96773.75;4993551;28;20359;-80
2021/09/05 12:38:31;;;;;;;;;;;;;;;27.22;39.73;96771.53;5043074;28;19973;-81
2021/09/05 12:41:04;;;;;;;;;;;;;;;27.13;37.84;96760.75;5055178;28;19970;-80
2021/09/05 12:43:43;;;;;;;;;;;;;;;27.02;39.19;96770.25;5054235;28;19969;-80
2021/09/05 12:46:10;;;;;;;;;;;;;;;27.02;39.36;96783.72;5055128;28;19969;-80
2021/09/05 12:48:38;;;;;;;;;;;;;;;27.11;38.99;96766.47;5054811;28;19973;-80
2021/09/05 12:51:09;;;;;;;;;;;;;;;27.12;37.92;96759.16;5054668;28;20419;-80
2021/09/05 12:53:35;;;;;;;;;;;;;;;27.16;38.51;96764.72;5053638;28;19988;-80